Time;durP1;ratioP1;P1;durP2;ratioP2;P2;SDS_P1;SDS_P2;PMS_P1;PMS_P2;Temp;Humidity;BMP_temperature;BMP_pressure;BME280_temperature;BME280_humidity;BME280_pressure;Samples;Min_cycle;Max_cycle;Signal;HPM_P1;HPM_P2
2021/10/16 00:00:11;;;;;;;21.33;4.25;;;;;;;10.21;78.91;102217.19;5043884;28;20041;-48
2021/10/16 00:02:37;;;;;;;20.40;4.30;;;;;;;10.21;78.43;102215.34;5034681;28;20026;-47
2021/10/16 00:05:03;;;;;;;20.80;4.35;;;;;;;10.19;77.79;102211.09;5034601;28;20029;-49
2021/10/16 00:07:28;;;;;;;13.68;4.43;;;;;;;10.19;78.43;102214.66;5034703;28;20116;-47
2021/10/16 00:09:54;;;;;;;15.05;4.65;;;;;;;10.19;78.50;102217.34;5041777;28;20029;-47
2021/10/16 00:12:19;;;;;;;17.70;4.70;;;;;;;10.19;78.97;102217.34;5054267;28;20022;-47
2021/10/16 00:14:44;;;;;;;16.88;4.28;;;;;;;10.20;79.07;102216.34;5054282;28;20083;-48
2021/10/16 00:17:10;;;;;;;17.67;4.20;;;;;;;10.22;79.12;102219.75;5054339;28;20036;-46
2021/10/16 00:19:36;;;;;;;16.48;4.05;;;;;;;10.23;79.39;102215.19;5047407;28;20068;-47
2021/10/16 00:22:01;;;;;;;15.07;4.38;;;;;;;10.20;77.78;102212.81;5034419;28;20120;-47
2021/10/16 00:24:27;;;;;;;21.13;4.20;;;;;;;10.18;78.37;102202.19;5054141;28;20037;-50
2021/10/16 00:26:52;;;;;;;17.00;3.95;;;;;;;10.20;78.45;102212.81;5053954;28;20021;-49
2021/10/16 00:29:17;;;;;;;15.10;3.70;;;;;;;10.17;78.00;102215.78;5051870;28;20025;-48
2021/10/16 00:31:43;;;;;;;15.60;3.60;;;;;;;10.18;75.97;102202.19;5034138;28;20028;-48
2021/10/16 00:34:08;;;;;;;12.60;3.00;;;;;;;10.23;75.09;102210.66;5033954;28;20032;-48
2021/10/16 00:36:33;;;;;;;18.08;4.00;;;;;;;10.28;76.91;102205.72;5033958;28;20112;-46
2021/10/16 00:38:59;;;;;;;18.58;4.13;;;;;;;10.33;76.90;102206.13;5033820;28;20381;-48
2021/10/16 00:41:24;;;;;;;15.45;3.75;;;;;;;10.35;76.57;102202.44;5053251;28;20028;-49
2021/10/16 00:44:20;;;;;;;23.50;4.10;;;;;;;10.36;77.65;102209.53;5053513;28;20250;-45
2021/10/16 00:46:46;;;;;;;15.18;3.88;;;;;;;10.38;77.41;102208.38;5053554;28;20480;-47
2021/10/16 00:49:11;;;;;;;12.52;3.33;;;;;;;10.35;77.19;102207.81;5052367;28;20029;-46
2021/10/16 00:51:37;;;;;;;12.45;3.30;;;;;;;10.35;76.75;102203.31;5033681;28;20032;-50
2021/10/16 00:54:03;;;;;;;18.65;3.75;;;;;;;10.36;77.47;102201.47;5033424;28;20025;-47
2021/10/16 00:56:29;;;;;;;12.00;3.42;;;;;;;10.39;76.98;102210.06;5036132;28;20035;-47
2021/10/16 00:58:55;;;;;;;18.60;3.67;;;;;;;10.37;76.96;102203.16;5051702;28;20480;-49
2021/10/16 01:01:20;;;;;;;23.23;4.03;;;;;;;10.38;76.98;102207.56;5050938;28;20029;-49
2021/10/16 01:03:46;;;;;;;11.45;3.20;;;;;;;10.37;76.96;102206.69;5053338;28;20383;-48
2021/10/16 01:06:11;;;;;;;18.63;3.95;;;;;;;10.36;75.21;102207.69;5051955;28;20121;-50
2021/10/16 01:08:37;;;;;;;18.55;3.88;;;;;;;10.40;76.59;102205.53;5053366;28;20036;-49
2021/10/16 01:11:02;;;;;;;20.90;3.85;;;;;;;10.38;76.19;102208.38;5051679;28;20032;-47
2021/10/16 01:13:28;;;;;;;20.08;3.70;;;;;;;10.37;75.80;102209.38;5053067;28;20387;-48
2021/10/16 01:15:55;;;;;;;22.30;3.50;;;;;;;10.39;75.50;102209.22;5051954;28;20477;-47
2021/10/16 01:18:21;;;;;;;22.92;3.72;;;;;;;10.38;75.36;102208.38;5038850;28;20495;-49
2021/10/16 01:20:47;;;;;;;16.23;3.13;;;;;;;10.38;75.96;102196.78;5045585;28;20025;-47
2021/10/16 01:23:13;;;;;;;13.13;2.92;;;;;;;10.36;76.08;102198.78;5051678;28;20066;-47
2021/10/16 01:25:39;;;;;;;19.77;3.65;;;;;;;10.30;75.77;102195.66;5068487;28;20021;-49
2021/10/16 01:28:05;;;;;;;11.80;3.30;;;;;;;10.27;75.10;102189.72;5051741;28;20503;-48
2021/10/16 01:30:30;;;;;;;8.82;2.90;;;;;;;10.26;75.92;102193.38;5039685;28;20388;-47
2021/10/16 01:32:56;;;;;;;15.73;4.10;;;;;;;10.21;76.24;102196.50;5032942;28;20026;-49
2021/10/16 01:35:21;;;;;;;15.02;3.47;;;;;;;10.15;76.37;102191.72;5040227;28;20542;-47
2021/10/16 01:37:49;;;;;;;17.40;3.38;;;;;;;10.08;76.37;102187.91;5052581;28;20033;-47
2021/10/16 01:40:14;;;;;;;10.27;3.67;;;;;;;10.00;77.13;102183.25;5052329;28;20029;-49
2021/10/16 01:42:42;;;;;;;11.27;3.05;;;;;;;9.93;77.52;102176.78;5052669;28;20104;-48
2021/10/16 01:45:13;;;;;;;18.98;3.72;;;;;;;9.84;77.54;102183.84;5052512;28;20465;-48
2021/10/16 01:47:45;;;;;;;16.67;3.35;;;;;;;9.78;77.95;102184.44;5052396;28;20476;-51
2021/10/16 01:50:10;;;;;;;11.82;2.70;;;;;;;9.72;77.84;102182.34;5052438;28;20025;-49
2021/10/16 01:52:36;;;;;;;14.18;3.10;;;;;;;9.68;77.98;102178.22;5052437;28;20090;-50
2021/10/16 01:55:01;;;;;;;17.73;3.50;;;;;;;9.68;77.76;102172.84;5051701;28;20021;-48
2021/10/16 01:57:26;;;;;;;12.93;3.03;;;;;;;9.61;76.40;102174.41;5052509;28;20368;-48
2021/10/16 01:59:52;;;;;;;18.65;4.28;;;;;;;9.60;76.78;102170.03;5052275;28;20077;-47
2021/10/16 02:02:17;;;;;;;12.10;3.60;;;;;;;9.60;77.34;102170.88;5052482;28;20071;-47
2021/10/16 02:04:42;;;;;;;18.10;3.65;;;;;;;9.60;77.17;102170.03;5050420;28;20126;-48
2021/10/16 02:07:08;;;;;;;15.77;3.33;;;;;;;9.63;77.98;102172.41;5032091;28;20536;-50
2021/10/16 02:09:33;;;;;;;17.05;3.70;;;;;;;9.64;77.66;102166.91;5032383;28;20357;-47
2021/10/16 02:11:58;;;;;;;16.27;3.10;;;;;;;9.66;78.39;102172.13;5044116;28;20389;-49
2021/10/16 02:14:24;;;;;;;16.58;3.70;;;;;;;9.70;77.99;102165.50;5033559;28;20431;-48
2021/10/16 02:16:49;;;;;;;17.25;2.90;;;;;;;9.70;77.05;102160.13;5048423;28;20409;-49
2021/10/16 02:19:14;;;;;;;23.33;3.45;;;;;;;9.70;77.82;102154.75;5050984;28;20036;-51
2021/10/16 02:21:39;;;;;;;15.57;3.63;;;;;;;9.72;77.74;102160.81;5052175;28;20018;-47
2021/10/16 02:24:05;;;;;;;18.80;3.05;;;;;;;9.72;77.40;102157.28;5052146;28;20029;-49
2021/10/16 02:26:30;;;;;;;9.32;2.45;;;;;;;9.71;77.97;102167.19;5033905;28;20022;-49
2021/10/16 02:28:56;;;;;;;17.95;3.20;;;;;;;9.74;79.37;102163.34;5062631;28;20032;-47
2021/10/16 02:31:21;;;;;;;15.75;2.80;;;;;;;9.73;79.01;102165.19;5052164;28;20029;-46
2021/10/16 02:33:47;;;;;;;11.43;2.60;;;;;;;9.76;79.43;102156.00;5050946;28;20063;-47
2021/10/16 02:36:13;;;;;;;17.30;3.38;;;;;;;9.76;79.24;102156.84;5051387;28;20037;-48
2021/10/16 02:38:38;;;;;;;13.82;3.20;;;;;;;9.78;79.19;102165.63;5050949;28;20028;-47
2021/10/16 02:41:03;;;;;;;14.93;2.75;;;;;;;9.76;79.72;102162.22;5051984;28;20025;-47
2021/10/16 02:43:29;;;;;;;15.95;3.10;;;;;;;9.76;79.55;102162.22;5052006;28;20468;-48
2021/10/16 02:45:54;;;;;;;10.05;2.85;;;;;;;9.69;79.44;102163.81;5037988;28;20052;-48
2021/10/16 02:48:19;;;;;;;15.77;3.55;;;;;;;9.64;78.99;102172.28;5032024;28;20025;-50
2021/10/16 02:50:45;;;;;;;10.85;2.92;;;;;;;9.59;79.69;102174.56;5059452;28;20029;-48
2021/10/16 02:53:10;;;;;;;17.25;3.03;;;;;;;9.53;80.41;102172.47;5052638;28;20471;-48
2021/10/16 02:55:35;;;;;;;13.48;3.20;;;;;;;9.48;80.06;102176.53;5050070;28;20029;-48
2021/10/16 02:58:01;;;;;;;14.85;2.95;;;;;;;9.41;80.36;102171.72;5051900;28;20029;-50
2021/10/16 03:00:26;;;;;;;8.57;2.70;;;;;;;9.36;80.58;102174.00;5051608;28;20037;-50
2021/10/16 03:02:52;;;;;;;12.60;2.97;;;;;;;9.28;80.70;102165.78;5051986;28;20021;-49
2021/10/16 03:05:17;;;;;;;18.02;3.38;;;;;;;9.20;80.62;102169.19;5051019;28;20383;-48
2021/10/16 03:07:42;;;;;;;13.95;2.92;;;;;;;9.15;80.77;102167.91;5051948;28;20535;-46
2021/10/16 03:10:08;;;;;;;15.32;2.90;;;;;;;9.09;81.01;102179.22;5051994;28;20510;-47
2021/10/16 03:12:33;;;;;;;16.48;2.63;;;;;;;9.02;81.55;102179.75;5046324;28;20041;-48
2021/10/16 03:14:59;;;;;;;16.77;3.70;;;;;;;8.97;81.71;102178.47;5037223;28;20059;-49
2021/10/16 03:17:24;;;;;;;10.18;2.70;;;;;;;8.92;81.84;102188.78;5051606;28;20060;-48
2021/10/16 03:19:49;;;;;;;13.23;2.80;;;;;;;8.84;82.06;102184.09;5054445;28;20056;-49
2021/10/16 03:22:15;;;;;;;11.60;3.03;;;;;;;8.77;82.31;102177.59;5055374;28;20056;-49
2021/10/16 03:24:40;;;;;;;13.32;3.22;;;;;;;8.70;82.17;102176.44;5084458;28;20064;-48
2021/10/16 03:27:06;;;;;;;11.43;3.03;;;;;;;8.63;82.42;102173.44;5033925;28;20102;-48
2021/10/16 03:29:32;;;;;;;12.77;2.95;;;;;;;8.58;82.78;102173.00;5035516;28;20033;-49
2021/10/16 03:31:58;;;;;;;14.75;3.10;;;;;;;8.53;82.77;102170.75;5033934;28;20468;-47
2021/10/16 03:34:26;;;;;;;13.18;3.17;;;;;;;8.51;82.27;102167.34;5038713;28;20040;-50
2021/10/16 03:36:51;;;;;;;17.75;3.25;;;;;;;8.49;82.90;102163.94;5054881;28;20036;-50
2021/10/16 03:39:16;;;;;;;14.25;3.20;;;;;;;8.46;83.35;102166.91;5055197;28;20021;-46
2021/10/16 03:41:41;;;;;;;12.05;3.08;;;;;;;8.45;83.43;102154.50;5055196;28;20036;-50
2021/10/16 03:44:07;;;;;;;16.83;3.33;;;;;;;8.43;83.57;102163.66;5054098;28;20037;-47
2021/10/16 03:46:32;;;;;;;12.65;3.17;;;;;;;8.40;83.35;102162.09;5034821;28;20108;-50
2021/10/16 03:48:58;;;;;;;20.77;3.97;;;;;;;8.35;82.67;102157.09;5034805;28;20090;-48
2021/10/16 03:51:23;;;;;;;10.35;2.90;;;;;;;8.29;82.90;102159.44;5034975;28;20148;-47
2021/10/16 03:53:48;;;;;;;17.45;3.28;;;;;;;8.24;82.85;102159.00;5040343;28;20026;-50
2021/10/16 03:56:14;;;;;;;12.18;3.17;;;;;;;8.17;82.63;102161.38;5036786;28;20112;-50
2021/10/16 03:58:40;;;;;;;13.48;3.10;;;;;;;8.11;83.46;102160.09;5034351;28;20053;-50
2021/10/16 04:01:05;;;;;;;14.93;3.00;;;;;;;8.06;83.51;102161.47;5053519;28;20701;-48
2021/10/16 04:03:31;;;;;;;19.65;4.03;;;;;;;8.02;83.07;102160.88;5052524;28;20037;-49
2021/10/16 04:05:56;;;;;;;18.50;3.40;;;;;;;7.97;83.11;102154.22;5055677;28;20029;-49
2021/10/16 04:08:22;;;;;;;15.50;3.30;;;;;;;7.89;83.51;102155.72;5039404;28;20038;-50
2021/10/16 04:10:48;;;;;;;14.13;3.50;;;;;;;7.85;84.07;102158.81;5034721;28;20025;-46
2021/10/16 04:13:13;;;;;;;16.38;3.50;;;;;;;7.81;84.05;102152.84;5045405;28;20033;-49
2021/10/16 04:15:39;;;;;;;17.77;3.72;;;;;;;7.80;84.11;102151.16;5045673;28;20108;-47
2021/10/16 04:18:05;;;;;;;19.08;3.83;;;;;;;7.76;84.58;102155.06;5050677;28;20407;-50
2021/10/16 04:20:30;;;;;;;19.88;3.92;;;;;;;7.74;84.77;102150.84;5052520;28;20065;-46
2021/10/16 04:22:56;;;;;;;11.50;3.13;;;;;;;7.70;84.57;102151.09;5052781;28;20081;-49
2021/10/16 04:25:21;;;;;;;17.90;3.67;;;;;;;7.68;84.59;102150.38;5049459;28;20112;-46
2021/10/16 04:27:47;;;;;;;15.70;3.42;;;;;;;7.68;84.63;102153.06;5053409;28;20128;-47
2021/10/16 04:30:12;;;;;;;13.07;3.63;;;;;;;7.68;85.06;102153.06;5052320;28;20459;-47
2021/10/16 04:32:38;;;;;;;14.52;3.10;;;;;;;7.69;85.21;102154.78;5052975;28;20035;-48
2021/10/16 04:35:05;;;;;;;11.77;2.78;;;;;;;7.72;85.19;102155.50;5052683;28;20028;-48
2021/10/16 04:37:30;;;;;;;18.33;3.87;;;;;;;7.75;85.47;102157.91;5052858;28;20116;-48
2021/10/16 04:39:56;;;;;;;11.52;3.85;;;;;;;7.77;85.33;102161.31;5052031;28;20119;-49
2021/10/16 04:42:22;;;;;;;20.60;3.55;;;;;;;7.82;84.93;102161.75;5052772;28;20442;-48
2021/10/16 04:44:47;;;;;;;13.68;3.50;;;;;;;7.88;84.99;102163.91;5049480;28;20033;-48
2021/10/16 04:47:12;;;;;;;13.48;2.88;;;;;;;7.94;84.53;102162.53;5052220;28;20021;-47
2021/10/16 04:49:38;;;;;;;18.42;3.80;;;;;;;7.99;84.68;102161.16;5051443;28;20032;-49
2021/10/16 04:52:04;;;;;;;14.32;3.30;;;;;;;8.06;84.43;102156.97;5050305;28;20471;-48
2021/10/16 04:54:30;;;;;;;13.60;2.78;;;;;;;8.19;84.29;102166.59;5030573;28;20480;-47
2021/10/16 04:56:55;;;;;;;13.73;3.22;;;;;;;8.31;84.57;102162.84;5049242;28;20032;-47
2021/10/16 04:59:21;;;;;;;9.75;3.28;;;;;;;8.38;83.95;102161.34;5047421;28;20053;-49
2021/10/16 05:01:46;;;;;;;14.05;3.53;;;;;;;8.47;83.74;102155.19;5049348;28;20033;-48
2021/10/16 05:04:12;;;;;;;18.15;3.40;;;;;;;8.54;83.97;102156.34;5049161;28;20086;-47
2021/10/16 05:06:37;;;;;;;12.07;2.90;;;;;;;8.59;83.51;102155.09;5046983;28;20094;-48
2021/10/16 05:09:02;;;;;;;14.27;3.13;;;;;;;8.64;83.48;102158.22;5049297;28;20067;-49
2021/10/16 05:11:28;;;;;;;10.52;3.10;;;;;;;8.67;83.25;102149.88;5048786;28;20025;-50
2021/10/16 05:13:53;;;;;;;9.63;2.88;;;;;;;8.69;83.70;102156.81;5048991;28;20035;-48
2021/10/16 05:16:18;;;;;;;19.40;3.50;;;;;;;8.70;83.84;102153.13;5046874;28;20029;-48
2021/10/16 05:18:44;;;;;;;17.23;3.80;;;;;;;8.71;84.04;102145.94;5048704;28;20104;-50
2021/10/16 05:21:09;;;;;;;12.23;3.60;;;;;;;8.72;83.53;102147.66;5049186;28;20052;-49
2021/10/16 05:23:35;;;;;;;13.60;3.60;;;;;;;8.72;83.47;102144.97;5049265;28;20021;-47
2021/10/16 05:26:00;;;;;;;15.32;3.10;;;;;;;8.72;84.00;102147.66;5037277;28;20369;-49
2021/10/16 05:28:26;;;;;;;13.85;3.22;;;;;;;8.73;83.67;102154.69;5053113;28;20090;-47
2021/10/16 05:30:51;;;;;;;16.95;3.08;;;;;;;8.73;83.84;102152.00;5052544;28;20573;-46
2021/10/16 05:33:16;;;;;;;22.88;3.90;;;;;;;8.74;83.58;102151.88;5049640;28;20558;-50
2021/10/16 05:35:44;;;;;;;14.45;3.30;;;;;;;8.77;83.99;102156.13;5049109;28;20528;-46
2021/10/16 05:38:11;;;;;;;9.80;3.25;;;;;;;8.79;83.92;102146.09;5049804;28;20140;-46
2021/10/16 05:40:36;;;;;;;18.10;3.65;;;;;;;8.78;83.45;102147.94;5049788;28;20033;-49
2021/10/16 05:43:03;;;;;;;19.88;3.38;;;;;;;8.79;83.84;102149.63;5081582;28;20028;-47
2021/10/16 05:45:28;;;;;;;13.35;3.67;;;;;;;8.79;83.37;102154.13;5044273;28;20657;-47
2021/10/16 05:47:53;;;;;;;16.15;3.13;;;;;;;8.79;83.69;102148.75;5029434;28;20032;-50
2021/10/16 05:50:19;;;;;;;22.13;3.72;;;;;;;8.82;83.67;102150.31;5029708;28;20033;-48
2021/10/16 05:52:44;;;;;;;27.95;4.82;;;;;;;8.79;83.85;102149.63;5049047;28;20107;-47
2021/10/16 05:55:10;;;;;;;14.40;3.20;;;;;;;8.80;83.85;102150.47;5054176;28;20084;-47
2021/10/16 05:57:35;;;;;;;14.43;3.17;;;;;;;8.81;84.19;102152.16;5065372;28;20044;-46
2021/10/16 06:00:01;;;;;;;13.63;3.33;;;;;;;8.84;84.10;102151.03;5069214;28;20041;-47
2021/10/16 06:02:27;;;;;;;15.35;3.38;;;;;;;8.85;84.08;102148.22;5069282;28;20048;-49
2021/10/16 06:04:52;;;;;;;29.25;3.10;;;;;;;8.83;84.03;102142.16;5069024;28;20453;-49
2021/10/16 06:07:18;;;;;;;14.35;3.97;;;;;;;8.83;83.91;102150.19;5047933;28;20482;-47
2021/10/16 06:09:43;;;;;;;16.75;3.70;;;;;;;8.84;84.21;102151.03;5049081;28;20573;-47
2021/10/16 06:12:08;;;;;;;17.27;3.30;;;;;;;8.82;84.28;102145.84;5047955;28;20052;-47
2021/10/16 06:14:34;;;;;;;21.05;3.53;;;;;;;8.84;84.38;102146.50;5051337;28;20174;-47
2021/10/16 06:16:59;;;;;;;21.33;3.53;;;;;;;8.86;84.52;102149.06;5050255;28;20033;-48
2021/10/16 06:19:24;;;;;;;15.30;3.35;;;;;;;8.87;84.21;102143.56;5065545;28;20032;-47
2021/10/16 06:21:50;;;;;;;16.00;3.63;;;;;;;8.85;84.10;102142.88;5072239;28;20032;-49
2021/10/16 06:24:15;;;;;;;13.93;2.97;;;;;;;8.85;84.20;102150.91;5069767;28;20082;-47
2021/10/16 06:26:40;;;;;;;14.00;3.00;;;;;;;8.87;84.22;102150.75;5049830;28;20032;-48
2021/10/16 06:29:29;;;;;;;17.20;3.38;;;;;;;8.87;84.37;102148.06;5064255;28;20402;-48
2021/10/16 06:31:55;;;;;;;20.23;3.45;;;;;;;8.88;84.14;102153.31;5067724;28;20494;-48
2021/10/16 06:34:20;;;;;;;14.40;3.17;;;;;;;8.94;84.43;102152.75;5067625;28;20031;-49
2021/10/16 06:36:46;;;;;;;18.80;3.85;;;;;;;8.98;84.23;102146.13;5068351;28;20391;-46
2021/10/16 06:39:11;;;;;;;14.90;4.07;;;;;;;9.02;84.31;102150.22;5067790;28;20369;-46
2021/10/16 06:41:36;;;;;;;19.20;3.63;;;;;;;9.10;84.20;102156.75;5068062;28;20094;-47
2021/10/16 06:44:01;;;;;;;18.92;3.88;;;;;;;9.15;84.03;102149.94;5067724;28;20382;-49
2021/10/16 06:46:27;;;;;;;15.75;4.03;;;;;;;9.21;83.92;102153.91;5065818;28;20563;-50
2021/10/16 06:48:52;;;;;;;13.85;3.28;;;;;;;9.26;84.23;102161.56;5070559;28;20025;-46
2021/10/16 06:51:17;;;;;;;23.30;4.53;;;;;;;9.31;83.88;102160.13;5067614;28;20056;-46
2021/10/16 06:53:43;;;;;;;16.23;3.22;;;;;;;9.38;83.51;102161.28;5068031;28;20146;-47
2021/10/16 06:56:08;;;;;;;21.65;4.00;;;;;;;9.43;83.54;102161.69;5065764;28;20110;-45
2021/10/16 06:58:33;;;;;;;19.48;3.33;;;;;;;9.47;83.22;102162.25;5063797;28;20052;-47
2021/10/16 07:00:59;;;;;;;18.17;3.38;;;;;;;9.52;83.44;102164.53;5066300;28;20035;-47
2021/10/16 07:03:27;;;;;;;21.00;3.58;;;;;;;9.56;83.21;102163.25;5062899;28;20044;-47
2021/10/16 07:05:53;;;;;;;21.35;3.53;;;;;;;9.59;82.61;102160.28;5067614;28;20541;-47
2021/10/16 07:08:18;;;;;;;15.63;3.55;;;;;;;9.62;82.61;102165.38;5065251;28;20036;-48
2021/10/16 07:10:43;;;;;;;16.40;2.85;;;;;;;9.64;82.25;102166.06;5067690;28;20025;-48
2021/10/16 07:13:09;;;;;;;12.05;3.22;;;;;;;9.67;82.03;102158.56;5065602;28;20119;-47
2021/10/16 07:15:35;;;;;;;17.30;3.22;;;;;;;9.72;82.48;102163.50;5067041;28;20028;-49
2021/10/16 07:18:00;;;;;;;23.30;4.15;;;;;;;9.75;82.27;102173.97;5067445;28;20035;-49
2021/10/16 07:20:26;;;;;;;21.77;3.63;;;;;;;9.79;82.68;102170.00;5067328;28;20025;-49
2021/10/16 07:22:51;;;;;;;18.42;3.70;;;;;;;9.81;81.58;102172.53;5067148;28;20024;-50
2021/10/16 07:25:16;;;;;;;12.88;3.33;;;;;;;9.86;80.48;102173.81;5063825;28;20048;-47
2021/10/16 07:27:42;;;;;;;16.42;3.08;;;;;;;9.93;80.98;102173.25;5064001;28;20053;-46
2021/10/16 07:30:08;;;;;;;12.48;3.17;;;;;;;9.95;80.04;102185.53;5067217;28;20020;-46
2021/10/16 07:32:34;;;;;;;13.32;3.08;;;;;;;10.00;80.22;102183.25;5063134;28;20077;-49
2021/10/16 07:34:59;;;;;;;23.33;3.88;;;;;;;10.05;80.14;102180.97;5065913;28;20033;-47
2021/10/16 07:37:25;;;;;;;26.55;4.63;;;;;;;10.06;79.41;102190.75;5065133;28;20063;-47
2021/10/16 07:39:50;;;;;;;19.98;3.70;;;;;;;10.06;79.33;102180.00;5058637;28;20041;-50
2021/10/16 07:42:16;;;;;;;15.43;3.35;;;;;;;10.07;79.49;102184.38;5053938;28;20029;-48
2021/10/16 07:44:41;;;;;;;15.38;3.60;;;;;;;10.11;79.02;102185.78;5049309;28;20063;-49
2021/10/16 07:47:07;;;;;;;11.90;3.30;;;;;;;10.13;79.25;102182.94;5053762;28;20115;-49
2021/10/16 07:49:32;;;;;;;22.70;3.38;;;;;;;10.16;79.32;102188.03;5053564;28;20353;-50
2021/10/16 07:51:57;;;;;;;16.70;3.70;;;;;;;10.21;79.15;102190.28;5053119;28;20051;-47
2021/10/16 07:54:22;;;;;;;22.50;4.22;;;;;;;10.26;78.85;102194.22;5052753;28;20025;-48
2021/10/16 07:56:48;;;;;;;17.35;3.65;;;;;;;10.26;78.70;102199.59;5052935;28;20036;-49
2021/10/16 07:59:13;;;;;;;17.58;3.17;;;;;;;10.28;78.37;102194.97;5053526;28;20025;-47
2021/10/16 08:01:39;;;;;;;19.50;3.15;;;;;;;10.32;78.61;102198.19;5052907;28;20021;-45
2021/10/16 08:04:04;;;;;;;19.55;3.40;;;;;;;10.37;78.61;102195.06;5053094;28;20032;-47
2021/10/16 08:06:30;;;;;;;18.33;4.50;;;;;;;10.45;79.23;102197.88;5051299;28;20048;-47
2021/10/16 08:08:55;;;;;;;19.98;3.83;;;;;;;10.48;78.23;102202.97;5052657;28;20029;-49
2021/10/16 08:11:21;;;;;;;19.17;3.42;;;;;;;10.49;77.33;102204.66;5050653;28;20025;-47
2021/10/16 08:13:46;;;;;;;17.30;3.70;;;;;;;10.54;77.71;102191.63;5051694;28;20037;-49
2021/10/16 08:16:12;;;;;;;19.23;3.90;;;;;;;10.62;77.75;102194.41;5051763;28;20084;-49
2021/10/16 08:18:37;;;;;;;22.38;3.85;;;;;;;10.73;77.94;102196.88;5052708;28;20029;-45
2021/10/16 08:21:02;;;;;;;10.48;3.40;;;;;;;10.79;77.79;102190.06;5052935;28;20140;-49
2021/10/16 08:23:28;;;;;;;18.20;3.92;;;;;;;10.85;77.81;102189.47;5052180;28;20841;-48
2021/10/16 08:25:59;;;;;;;22.42;3.53;;;;;;;10.94;77.62;102187.72;5049917;28;20458;-48
2021/10/16 08:28:25;;;;;;;20.75;3.70;;;;;;;11.03;77.77;102192.16;5044111;28;20465;-46
2021/10/16 08:30:50;;;;;;;14.32;3.22;;;;;;;11.12;76.96;102193.97;5039690;28;20025;-47
2021/10/16 08:33:20;;;;;;;16.83;3.35;;;;;;;11.25;76.94;102195.44;5042096;28;20495;-47
2021/10/16 08:35:45;;;;;;;18.55;3.65;;;;;;;11.42;76.90;102203.50;5040567;28;20131;-45
2021/10/16 08:38:11;;;;;;;13.23;3.53;;;;;;;11.40;75.92;102197.44;5044693;28;20726;-45
2021/10/16 08:40:37;;;;;;;15.15;3.83;;;;;;;11.43;75.82;102202.53;5044447;28;20037;-47
2021/10/16 08:43:03;;;;;;;22.92;3.72;;;;;;;11.39;74.22;102205.69;5045251;28;20029;-45
2021/10/16 08:45:28;;;;;;;26.95;4.32;;;;;;;11.46;75.36;102200.53;5038008;28;20446;-47
2021/10/16 08:47:54;;;;;;;18.00;3.45;;;;;;;11.49;74.25;102201.06;5048345;28;20024;-47
2021/10/16 08:50:21;;;;;;;19.80;3.50;;;;;;;11.54;74.04;102196.06;5033905;28;20112;-48
2021/10/16 08:52:46;;;;;;;13.85;2.80;;;;;;;11.53;73.03;102206.97;5052032;28;20051;-50
2021/10/16 08:55:13;;;;;;;21.38;3.97;;;;;;;11.55;72.95;102210.38;5051446;28;20486;-47
2021/10/16 08:57:38;;;;;;;30.00;3.53;;;;;;;11.49;72.74;102214.53;5051399;28;20476;-47
2021/10/16 09:00:54;;;;;;;19.77;3.42;;;;;;;11.45;72.53;102217.69;5048133;28;20087;-47
2021/10/16 09:03:19;;;;;;;18.45;3.60;;;;;;;11.49;72.96;102211.84;5050870;28;20040;-50
2021/10/16 09:06:07;;;;;;;22.52;4.07;;;;;;;11.46;72.09;102214.84;5046186;28;20025;-47
2021/10/16 09:08:46;;;;;;;17.77;3.20;;;;;;;11.54;71.73;102211.41;5051830;28;20065;-47
2021/10/16 09:11:29;;;;;;;20.00;3.20;;;;;;;11.60;71.86;102210.75;5051812;28;20426;-47
2021/10/16 09:13:56;;;;;;;16.55;3.35;;;;;;;11.69;71.36;102215.25;5051217;28;20033;-48
2021/10/16 09:16:30;;;;;;;16.00;3.28;;;;;;;11.69;70.74;102214.38;5050906;28;20033;-49
2021/10/16 09:19:00;;;;;;;23.42;3.45;;;;;;;11.70;69.60;102216.09;5051997;28;20357;-48
2021/10/16 09:21:27;;;;;;;22.83;3.58;;;;;;;11.78;69.88;102213.44;5045728;28;20039;-48
2021/10/16 09:24:12;;;;;;;17.67;3.40;;;;;;;11.77;69.21;102204.50;5050241;28;20040;-47
2021/10/16 09:26:39;;;;;;;13.52;3.33;;;;;;;11.89;69.42;102204.28;5051724;28;20025;-47
2021/10/16 09:29:06;;;;;;;14.40;2.80;;;;;;;11.92;68.88;102207.50;5051795;28;20110;-48
2021/10/16 09:31:36;;;;;;;19.05;3.03;;;;;;;11.89;68.15;102202.44;5048540;28;20550;-50
2021/10/16 09:34:02;;;;;;;15.35;3.15;;;;;;;11.85;67.35;102209.13;5050763;28;20442;-47
2021/10/16 09:36:30;;;;;;;16.60;3.40;;;;;;;11.92;67.56;102199.41;5050943;28;20437;-51
2021/10/16 09:38:56;;;;;;;18.77;2.83;;;;;;;11.94;66.88;102202.81;5051411;28;20021;-50
2021/10/16 09:41:35;;;;;;;14.10;2.90;;;;;;;12.03;68.08;102206.41;5048634;28;20420;-48
2021/10/16 09:44:02;;;;;;;15.05;2.60;;;;;;;12.14;67.26;102205.28;5050892;28;20488;-49
2021/10/16 09:46:27;;;;;;;25.55;3.08;;;;;;;12.17;64.89;102203.13;5051218;28;20021;-47
2021/10/16 09:48:52;;;;;;;15.93;2.97;;;;;;;12.31;66.13;102209.78;5049280;28;20513;-47
2021/10/16 09:51:22;;;;;;;20.33;3.22;;;;;;;12.39;64.13;102212.53;5033650;28;20048;-49
2021/10/16 09:53:50;;;;;;;13.30;2.47;;;;;;;12.41;63.68;102205.13;5047825;28;20029;-49
2021/10/16 09:56:16;;;;;;;18.23;3.22;;;;;;;12.54;64.51;102210.09;5052639;28;20108;-48
2021/10/16 09:58:42;;;;;;;17.05;5.25;;;;;;;12.79;63.82;102208.31;5037903;28;20063;-48
2021/10/16 10:01:09;;;;;;;19.90;2.50;;;;;;;13.06;62.25;102204.56;5045344;28;20060;-49
2021/10/16 10:03:40;;;;;;;12.88;2.60;;;;;;;13.42;61.76;102215.09;5051045;28;20090;-50
2021/10/16 10:06:07;;;;;;;18.50;2.95;;;;;;;13.55;60.79;102220.88;5051727;28;20087;-50
2021/10/16 10:08:34;;;;;;;13.90;2.60;;;;;;;13.77;61.36;102213.97;5048923;28;20029;-48
2021/10/16 10:11:01;;;;;;;18.20;3.70;;;;;;;13.95;60.55;102221.03;5032192;28;20397;-47
2021/10/16 10:13:28;;;;;;;15.93;3.10;;;;;;;13.66;60.10;102216.16;5032357;28;20025;-48
2021/10/16 10:15:54;;;;;;;11.70;3.57;;;;;;;13.79;60.56;102221.91;5032654;28;20075;-50
2021/10/16 10:21:04;;;;;;;13.10;2.35;;;;;;;13.48;58.78;102219.00;5032288;28;20063;-50
2021/10/16 10:23:29;;;;;;;16.45;3.10;;;;;;;13.33;58.63;102208.00;5031044;28;20025;-49
2021/10/16 10:26:20;;;;;;;16.50;2.50;;;;;;;13.41;59.08;102207.19;5031878;28;20488;-50
2021/10/16 10:28:52;;;;;;;16.48;3.20;;;;;;;13.35;58.51;102211.41;5034613;28;20038;-48
2021/10/16 10:31:46;;;;;;;10.20;2.40;;;;;;;13.32;58.52;102209.88;5050573;28;20074;-49
2021/10/16 10:34:16;;;;;;;20.00;2.88;;;;;;;13.45;57.61;102209.34;5052089;28;20033;-51
2021/10/16 10:36:53;;;;;;;19.50;3.90;;;;;;;13.57;57.41;102207.19;5052024;28;20044;-48
2021/10/16 10:39:27;;;;;;;5.93;2.22;;;;;;;13.67;56.18;102207.03;5044933;28;20025;-49
2021/10/16 10:41:53;;;;;;;10.35;2.15;;;;;;;13.65;57.98;102207.19;5032749;28;20033;-49
2021/10/16 10:44:40;;;;;;;12.50;2.47;;;;;;;13.54;57.22;102207.53;5051501;28;20032;-47
2021/10/16 10:47:29;;;;;;;12.82;2.90;;;;;;;13.47;58.49;102204.63;5041209;28;20383;-48
2021/10/16 10:49:58;;;;;;;10.10;2.42;;;;;;;13.42;59.27;102198.03;5046199;28;20033;-47
2021/10/16 10:52:27;;;;;;;13.05;2.90;;;;;;;13.40;58.68;102203.59;5051569;28;20436;-49
2021/10/16 10:54:58;;;;;;;14.63;2.67;;;;;;;13.41;60.09;102201.78;5051451;28;20132;-48
2021/10/16 10:57:44;;;;;;;16.27;3.50;;;;;;;13.58;58.91;102204.28;5051626;28;20127;-50
2021/10/16 11:00:17;;;;;;;11.40;2.47;;;;;;;14.09;58.01;102201.41;5031607;28;20160;-50
2021/10/16 11:02:42;;;;;;;15.98;2.67;;;;;;;14.23;55.64;102202.56;5031690;28;20087;-50
2021/10/16 11:05:23;;;;;;;19.13;2.38;;;;;;;14.10;55.03;102213.91;5030705;28;20026;-48
2021/10/16 11:07:49;;;;;;;16.67;3.17;;;;;;;14.12;55.72;102206.47;5048195;28;20033;-48
2021/10/16 11:10:14;;;;;;;11.38;2.20;;;;;;;14.07;55.09;102208.00;5035166;28;20025;-48
2021/10/16 11:12:42;;;;;;;12.23;2.58;;;;;;;13.87;57.24;102205.66;5069736;28;20035;-48
2021/10/16 11:15:09;;;;;;;14.75;2.70;;;;;;;13.61;57.92;102197.69;5067244;28;20037;-50
2021/10/16 11:17:43;;;;;;;16.55;3.17;;;;;;;13.63;58.73;102195.69;5043828;28;20021;-47
2021/10/16 11:20:10;;;;;;;16.30;2.92;;;;;;;13.59;59.19;102194.34;5039725;28;20071;-48
2021/10/16 11:22:48;;;;;;;12.90;2.95;;;;;;;13.71;59.38;102190.25;5036100;28;20419;-48